sensor_id;sensor_type;location;lat;lon;timestamp;P1;durP1;ratioP1;P2;durP2;ratioP2
830;SDS011;397;50.564;7.272;2024-03-22T00:02:01;21.07;;;15.50;;
830;SDS011;397;50.564;7.272;2024-03-22T00:04:29;18.10;;;15.40;;
830;SDS011;397;50.564;7.272;2024-03-22T00:06:56;17.33;;;14.00;;
830;SDS011;397;50.564;7.272;2024-03-22T00:09:23;20.20;;;17.97;;
830;SDS011;397;50.564;7.272;2024-03-22T00:11:50;26.07;;;17.57;;
830;SDS011;397;50.564;7.272;2024-03-22T00:14:18;27.10;;;18.70;;
830;SDS011;397;50.564;7.272;2024-03-22T00:16:45;20.10;;;16.90;;
830;SDS011;397;50.564;7.272;2024-03-22T00:19:12;22.50;;;18.23;;
830;SDS011;397;50.564;7.272;2024-03-22T00:21:40;19.07;;;16.93;;
830;SDS011;397;50.564;7.272;2024-03-22T00:24:07;25.17;;;19.17;;
830;SDS011;397;50.564;7.272;2024-03-22T00:26:34;29.47;;;20.00;;
830;SDS011;397;50.564;7.272;2024-03-22T00:29:02;27.43;;;19.20;;
830;SDS011;397;50.564;7.272;2024-03-22T00:31:29;26.03;;;19.90;;
830;SDS011;397;50.564;7.272;2024-03-22T00:33:56;25.97;;;20.03;;
830;SDS011;397;50.564;7.272;2024-03-22T00:36:23;31.77;;;22.10;;
830;SDS011;397;50.564;7.272;2024-03-22T00:38:51;24.40;;;20.00;;
830;SDS011;397;50.564;7.272;2024-03-22T00:41:18;24.13;;;20.10;;
830;SDS011;397;50.564;7.272;2024-03-22T00:43:45;27.97;;;23.20;;
830;SDS011;397;50.564;7.272;2024-03-22T00:46:13;28.50;;;21.57;;
830;SDS011;397;50.564;7.272;2024-03-22T00:48:40;27.30;;;20.20;;
830;SDS011;397;50.564;7.272;2024-03-22T00:51:07;24.63;;;20.40;;
830;SDS011;397;50.564;7.272;2024-03-22T00:53:35;25.30;;;20.60;;
830;SDS011;397;50.564;7.272;2024-03-22T00:56:02;26.80;;;19.70;;
830;SDS011;397;50.564;7.272;2024-03-22T00:58:29;21.47;;;19.10;;
830;SDS011;397;50.564;7.272;2024-03-22T01:00:57;26.13;;;21.33;;
830;SDS011;397;50.564;7.272;2024-03-22T01:03:24;27.23;;;21.27;;
830;SDS011;397;50.564;7.272;2024-03-22T01:05:51;27.60;;;20.67;;
830;SDS011;397;50.564;7.272;2024-03-22T01:08:18;28.80;;;22.90;;
830;SDS011;397;50.564;7.272;2024-03-22T01:10:46;31.13;;;22.30;;
830;SDS011;397;50.564;7.272;2024-03-22T01:13:13;39.60;;;29.37;;
830;SDS011;397;50.564;7.272;2024-03-22T01:15:40;57.47;;;43.30;;
830;SDS011;397;50.564;7.272;2024-03-22T01:18:08;45.37;;;34.57;;
830;SDS011;397;50.564;7.272;2024-03-22T01:20:35;33.60;;;24.53;;
830;SDS011;397;50.564;7.272;2024-03-22T01:23:02;33.30;;;21.80;;
830;SDS011;397;50.564;7.272;2024-03-22T01:25:30;28.13;;;21.63;;
830;SDS011;397;50.564;7.272;2024-03-22T01:27:58;28.33;;;21.70;;
830;SDS011;397;50.564;7.272;2024-03-22T01:30:25;25.67;;;21.50;;
830;SDS011;397;50.564;7.272;2024-03-22T01:32:56;25.70;;;18.23;;
830;SDS011;397;50.564;7.272;2024-03-22T01:35:23;25.47;;;19.40;;
830;SDS011;397;50.564;7.272;2024-03-22T01:37:50;25.83;;;20.53;;
830;SDS011;397;50.564;7.272;2024-03-22T01:40:18;26.70;;;20.83;;
830;SDS011;397;50.564;7.272;2024-03-22T01:42:45;26.13;;;20.40;;
830;SDS011;397;50.564;7.272;2024-03-22T01:45:13;23.20;;;19.30;;
830;SDS011;397;50.564;7.272;2024-03-22T01:47:41;26.40;;;22.40;;
830;SDS011;397;50.564;7.272;2024-03-22T01:50:09;31.57;;;22.07;;
830;SDS011;397;50.564;7.272;2024-03-22T01:52:38;25.50;;;20.47;;
830;SDS011;397;50.564;7.272;2024-03-22T01:55:06;27.97;;;20.10;;
830;SDS011;397;50.564;7.272;2024-03-22T01:57:34;23.63;;;19.90;;
830;SDS011;397;50.564;7.272;2024-03-22T02:00:01;29.63;;;22.03;;
830;SDS011;397;50.564;7.272;2024-03-22T02:02:29;26.53;;;20.17;;
830;SDS011;397;50.564;7.272;2024-03-22T02:04:56;23.90;;;19.57;;
830;SDS011;397;50.564;7.272;2024-03-22T02:07:24;29.27;;;20.27;;
830;SDS011;397;50.564;7.272;2024-03-22T02:09:51;27.83;;;20.10;;
830;SDS011;397;50.564;7.272;2024-03-22T02:12:18;25.20;;;20.07;;
830;SDS011;397;50.564;7.272;2024-03-22T02:14:46;27.67;;;19.23;;
830;SDS011;397;50.564;7.272;2024-03-22T02:17:13;26.60;;;20.67;;
830;SDS011;397;50.564;7.272;2024-03-22T02:19:40;24.17;;;20.50;;
830;SDS011;397;50.564;7.272;2024-03-22T02:22:08;22.13;;;18.90;;
830;SDS011;397;50.564;7.272;2024-03-22T02:24:35;22.70;;;19.03;;
830;SDS011;397;50.564;7.272;2024-03-22T02:27:02;22.27;;;17.50;;
830;SDS011;397;50.564;7.272;2024-03-22T02:29:29;20.47;;;17.93;;
830;SDS011;397;50.564;7.272;2024-03-22T02:31:57;23.77;;;19.20;;
830;SDS011;397;50.564;7.272;2024-03-22T02:34:24;22.77;;;16.97;;
830;SDS011;397;50.564;7.272;2024-03-22T02:36:51;25.77;;;20.53;;
830;SDS011;397;50.564;7.272;2024-03-22T02:39:19;24.93;;;19.10;;
830;SDS011;397;50.564;7.272;2024-03-22T02:41:46;26.73;;;17.70;;
830;SDS011;397;50.564;7.272;2024-03-22T02:44:13;25.03;;;18.83;;
830;SDS011;397;50.564;7.272;2024-03-22T02:46:41;26.07;;;18.80;;
830;SDS011;397;50.564;7.272;2024-03-22T02:49:08;18.87;;;15.33;;
830;SDS011;397;50.564;7.272;2024-03-22T02:51:35;22.67;;;17.40;;
830;SDS011;397;50.564;7.272;2024-03-22T02:54:03;23.20;;;18.37;;
830;SDS011;397;50.564;7.272;2024-03-22T02:56:31;26.43;;;21.10;;
830;SDS011;397;50.564;7.272;2024-03-22T02:58:58;23.27;;;18.43;;
830;SDS011;397;50.564;7.272;2024-03-22T03:01:25;22.07;;;17.80;;
830;SDS011;397;50.564;7.272;2024-03-22T03:03:53;22.03;;;15.67;;
830;SDS011;397;50.564;7.272;2024-03-22T03:06:20;20.80;;;16.00;;
830;SDS011;397;50.564;7.272;2024-03-22T03:08:48;25.30;;;17.47;;
830;SDS011;397;50.564;7.272;2024-03-22T03:11:15;21.90;;;17.07;;
830;SDS011;397;50.564;7.272;2024-03-22T03:13:42;22.90;;;17.10;;
830;SDS011;397;50.564;7.272;2024-03-22T03:16:09;20.87;;;17.10;;
830;SDS011;397;50.564;7.272;2024-03-22T03:18:37;22.60;;;17.80;;
830;SDS011;397;50.564;7.272;2024-03-22T03:21:04;24.10;;;17.40;;
830;SDS011;397;50.564;7.272;2024-03-22T03:23:31;24.50;;;18.53;;
830;SDS011;397;50.564;7.272;2024-03-22T03:25:59;23.80;;;19.20;;
830;SDS011;397;50.564;7.272;2024-03-22T03:28:26;22.10;;;17.80;;
830;SDS011;397;50.564;7.272;2024-03-22T03:30:54;21.53;;;16.43;;
830;SDS011;397;50.564;7.272;2024-03-22T03:33:21;21.23;;;15.50;;
830;SDS011;397;50.564;7.272;2024-03-22T03:35:48;15.63;;;13.57;;
830;SDS011;397;50.564;7.272;2024-03-22T03:38:16;17.80;;;11.10;;
830;SDS011;397;50.564;7.272;2024-03-22T03:40:43;15.00;;;9.60;;
830;SDS011;397;50.564;7.272;2024-03-22T03:43:10;18.60;;;9.60;;
830;SDS011;397;50.564;7.272;2024-03-22T03:45:37;19.50;;;9.47;;
830;SDS011;397;50.564;7.272;2024-03-22T03:48:05;13.13;;;9.10;;
830;SDS011;397;50.564;7.272;2024-03-22T03:50:32;12.27;;;8.73;;
830;SDS011;397;50.564;7.272;2024-03-22T03:52:59;12.03;;;8.60;;
830;SDS011;397;50.564;7.272;2024-03-22T03:55:27;19.83;;;13.43;;
830;SDS011;397;50.564;7.272;2024-03-22T03:57:54;21.10;;;12.03;;
830;SDS011;397;50.564;7.272;2024-03-22T04:00:21;15.03;;;11.97;;
830;SDS011;397;50.564;7.272;2024-03-22T04:02:49;24.73;;;15.40;;
830;SDS011;397;50.564;7.272;2024-03-22T04:05:17;21.57;;;16.30;;
830;SDS011;397;50.564;7.272;2024-03-22T04:07:48;21.87;;;16.30;;
830;SDS011;397;50.564;7.272;2024-03-22T04:10:16;22.53;;;15.73;;
830;SDS011;397;50.564;7.272;2024-03-22T04:12:44;20.77;;;15.63;;
830;SDS011;397;50.564;7.272;2024-03-22T04:15:11;21.73;;;16.87;;
830;SDS011;397;50.564;7.272;2024-03-22T04:17:39;22.30;;;16.37;;
830;SDS011;397;50.564;7.272;2024-03-22T04:20:06;18.27;;;14.67;;
830;SDS011;397;50.564;7.272;2024-03-22T04:22:34;21.47;;;15.20;;
830;SDS011;397;50.564;7.272;2024-03-22T04:25:02;21.97;;;16.03;;
830;SDS011;397;50.564;7.272;2024-03-22T04:27:29;27.07;;;18.77;;
830;SDS011;397;50.564;7.272;2024-03-22T04:29:57;24.07;;;17.07;;
830;SDS011;397;50.564;7.272;2024-03-22T04:32:24;22.17;;;17.03;;
830;SDS011;397;50.564;7.272;2024-03-22T04:34:52;25.33;;;17.80;;
830;SDS011;397;50.564;7.272;2024-03-22T04:37:21;22.33;;;16.87;;
830;SDS011;397;50.564;7.272;2024-03-22T04:39:48;28.80;;;18.93;;
830;SDS011;397;50.564;7.272;2024-03-22T04:42:15;23.03;;;17.17;;
830;SDS011;397;50.564;7.272;2024-03-22T04:44:43;21.43;;;16.87;;
830;SDS011;397;50.564;7.272;2024-03-22T04:47:10;26.10;;;18.67;;
830;SDS011;397;50.564;7.272;2024-03-22T04:49:37;24.30;;;18.30;;
830;SDS011;397;50.564;7.272;2024-03-22T04:52:05;22.63;;;18.07;;
830;SDS011;397;50.564;7.272;2024-03-22T04:54:32;24.13;;;19.20;;
830;SDS011;397;50.564;7.272;2024-03-22T04:57:00;24.50;;;19.30;;
830;SDS011;397;50.564;7.272;2024-03-22T04:59:27;25.03;;;18.10;;
830;SDS011;397;50.564;7.272;2024-03-22T05:01:54;24.40;;;17.20;;
830;SDS011;397;50.564;7.272;2024-03-22T05:04:22;21.40;;;17.77;;
830;SDS011;397;50.564;7.272;2024-03-22T05:06:49;22.70;;;17.23;;
830;SDS011;397;50.564;7.272;2024-03-22T05:09:16;33.77;;;18.00;;
830;SDS011;397;50.564;7.272;2024-03-22T05:11:43;28.03;;;17.60;;
830;SDS011;397;50.564;7.272;2024-03-22T05:14:12;22.80;;;17.20;;
830;SDS011;397;50.564;7.272;2024-03-22T05:16:40;17.57;;;14.83;;
830;SDS011;397;50.564;7.272;2024-03-22T05:19:07;20.80;;;15.87;;
830;SDS011;397;50.564;7.272;2024-03-22T05:21:35;18.20;;;15.50;;
830;SDS011;397;50.564;7.272;2024-03-22T05:24:02;19.87;;;15.30;;
830;SDS011;397;50.564;7.272;2024-03-22T05:26:29;20.93;;;14.43;;
830;SDS011;397;50.564;7.272;2024-03-22T05:28:58;22.20;;;14.83;;
830;SDS011;397;50.564;7.272;2024-03-22T05:31:26;19.63;;;15.23;;
830;SDS011;397;50.564;7.272;2024-03-22T05:33:53;20.80;;;15.87;;
830;SDS011;397;50.564;7.272;2024-03-22T05:36:20;21.57;;;16.80;;
830;SDS011;397;50.564;7.272;2024-03-22T05:38:48;21.37;;;16.70;;
830;SDS011;397;50.564;7.272;2024-03-22T05:41:15;18.47;;;12.80;;
830;SDS011;397;50.564;7.272;2024-03-22T05:43:42;23.50;;;17.30;;
830;SDS011;397;50.564;7.272;2024-03-22T05:46:10;23.43;;;16.30;;
830;SDS011;397;50.564;7.272;2024-03-22T05:48:37;17.63;;;14.30;;
830;SDS011;397;50.564;7.272;2024-03-22T05:51:04;24.30;;;16.80;;
830;SDS011;397;50.564;7.272;2024-03-22T05:53:32;18.23;;;13.80;;
830;SDS011;397;50.564;7.272;2024-03-22T05:55:59;18.67;;;14.13;;
830;SDS011;397;50.564;7.272;2024-03-22T05:58:26;21.50;;;15.63;;
830;SDS011;397;50.564;7.272;2024-03-22T06:00:53;18.83;;;14.50;;
830;SDS011;397;50.564;7.272;2024-03-22T06:03:22;14.27;;;12.10;;
830;SDS011;397;50.564;7.272;2024-03-22T06:05:49;19.20;;;15.13;;
830;SDS011;397;50.564;7.272;2024-03-22T06:08:18;21.20;;;16.77;;
830;SDS011;397;50.564;7.272;2024-03-22T06:10:46;21.40;;;15.13;;
830;SDS011;397;50.564;7.272;2024-03-22T06:13:13;21.50;;;16.50;;
830;SDS011;397;50.564;7.272;2024-03-22T06:15:42;21.23;;;16.23;;
830;SDS011;397;50.564;7.272;2024-03-22T06:18:11;25.33;;;17.70;;
830;SDS011;397;50.564;7.272;2024-03-22T06:20:39;21.87;;;13.80;;
830;SDS011;397;50.564;7.272;2024-03-22T06:23:11;17.80;;;14.67;;
830;SDS011;397;50.564;7.272;2024-03-22T06:25:35;23.57;;;14.77;;
830;SDS011;397;50.564;7.272;2024-03-22T06:28:02;16.30;;;14.20;;
830;SDS011;397;50.564;7.272;2024-03-22T06:30:30;17.30;;;13.93;;
830;SDS011;397;50.564;7.272;2024-03-22T06:32:57;16.23;;;14.40;;
830;SDS011;397;50.564;7.272;2024-03-22T06:35:24;19.37;;;14.60;;
830;SDS011;397;50.564;7.272;2024-03-22T06:37:52;17.20;;;13.80;;
830;SDS011;397;50.564;7.272;2024-03-22T06:40:19;17.03;;;13.50;;
830;SDS011;397;50.564;7.272;2024-03-22T06:42:46;20.00;;;13.57;;
830;SDS011;397;50.564;7.272;2024-03-22T06:45:14;14.63;;;12.23;;
830;SDS011;397;50.564;7.272;2024-03-22T06:47:42;14.77;;;12.47;;
830;SDS011;397;50.564;7.272;2024-03-22T06:50:09;15.80;;;12.40;;
830;SDS011;397;50.564;7.272;2024-03-22T06:52:36;15.50;;;12.10;;
830;SDS011;397;50.564;7.272;2024-03-22T06:55:04;19.23;;;11.27;;
830;SDS011;397;50.564;7.272;2024-03-22T06:57:32;20.27;;;12.70;;
830;SDS011;397;50.564;7.272;2024-03-22T07:00:02;15.90;;;12.77;;
830;SDS011;397;50.564;7.272;2024-03-22T07:02:30;17.67;;;13.60;;
830;SDS011;397;50.564;7.272;2024-03-22T07:04:57;22.83;;;14.57;;
830;SDS011;397;50.564;7.272;2024-03-22T07:07:25;17.47;;;13.70;;
830;SDS011;397;50.564;7.272;2024-03-22T07:09:52;19.00;;;15.20;;
830;SDS011;397;50.564;7.272;2024-03-22T07:12:19;19.93;;;15.13;;
830;SDS011;397;50.564;7.272;2024-03-22T07:14:46;17.43;;;13.40;;
830;SDS011;397;50.564;7.272;2024-03-22T07:17:14;20.83;;;13.87;;
830;SDS011;397;50.564;7.272;2024-03-22T07:19:41;19.57;;;12.70;;
830;SDS011;397;50.564;7.272;2024-03-22T07:22:09;18.77;;;13.77;;
830;SDS011;397;50.564;7.272;2024-03-22T07:24:36;19.03;;;14.30;;
830;SDS011;397;50.564;7.272;2024-03-22T07:27:03;17.80;;;13.93;;
830;SDS011;397;50.564;7.272;2024-03-22T07:29:31;19.17;;;13.67;;
830;SDS011;397;50.564;7.272;2024-03-22T07:31:58;21.13;;;14.20;;
830;SDS011;397;50.564;7.272;2024-03-22T07:34:25;15.47;;;12.00;;
830;SDS011;397;50.564;7.272;2024-03-22T07:36:53;17.73;;;15.67;;
830;SDS011;397;50.564;7.272;2024-03-22T07:39:20;17.73;;;13.33;;
830;SDS011;397;50.564;7.272;2024-03-22T07:41:47;15.30;;;12.50;;
830;SDS011;397;50.564;7.272;2024-03-22T07:44:14;18.53;;;12.60;;
830;SDS011;397;50.564;7.272;2024-03-22T07:46:43;18.50;;;13.00;;
830;SDS011;397;50.564;7.272;2024-03-22T07:49:11;16.33;;;11.20;;
830;SDS011;397;50.564;7.272;2024-03-22T07:51:39;17.87;;;12.10;;
830;SDS011;397;50.564;7.272;2024-03-22T07:54:06;17.57;;;12.70;;
830;SDS011;397;50.564;7.272;2024-03-22T07:56:33;14.47;;;11.33;;
830;SDS011;397;50.564;7.272;2024-03-22T07:59:01;20.47;;;11.80;;
830;SDS011;397;50.564;7.272;2024-03-22T08:01:28;15.00;;;12.10;;
830;SDS011;397;50.564;7.272;2024-03-22T08:03:55;21.60;;;12.10;;
830;SDS011;397;50.564;7.272;2024-03-22T08:06:23;15.83;;;11.97;;
830;SDS011;397;50.564;7.272;2024-03-22T08:08:50;14.20;;;12.70;;
830;SDS011;397;50.564;7.272;2024-03-22T08:11:17;20.10;;;12.80;;
830;SDS011;397;50.564;7.272;2024-03-22T08:13:44;14.53;;;10.90;;
830;SDS011;397;50.564;7.272;2024-03-22T08:16:13;13.90;;;11.97;;
830;SDS011;397;50.564;7.272;2024-03-22T08:18:40;15.50;;;11.73;;
830;SDS011;397;50.564;7.272;2024-03-22T08:21:07;16.80;;;10.73;;
830;SDS011;397;50.564;7.272;2024-03-22T08:23:35;13.80;;;12.40;;
830;SDS011;397;50.564;7.272;2024-03-22T08:26:02;16.13;;;11.67;;
830;SDS011;397;50.564;7.272;2024-03-22T08:28:29;11.63;;;10.53;;
830;SDS011;397;50.564;7.272;2024-03-22T08:30:57;12.23;;;10.50;;
830;SDS011;397;50.564;7.272;2024-03-22T08:33:25;13.83;;;11.27;;
830;SDS011;397;50.564;7.272;2024-03-22T08:35:52;12.30;;;11.00;;
830;SDS011;397;50.564;7.272;2024-03-22T08:38:19;19.70;;;12.67;;
830;SDS011;397;50.564;7.272;2024-03-22T08:40:47;15.33;;;11.10;;
830;SDS011;397;50.564;7.272;2024-03-22T08:43:14;14.10;;;10.90;;
830;SDS011;397;50.564;7.272;2024-03-22T08:45:42;13.67;;;11.63;;
830;SDS011;397;50.564;7.272;2024-03-22T08:48:10;12.03;;;10.70;;
830;SDS011;397;50.564;7.272;2024-03-22T08:50:37;13.17;;;10.10;;
830;SDS011;397;50.564;7.272;2024-03-22T08:53:04;13.43;;;11.83;;
830;SDS011;397;50.564;7.272;2024-03-22T08:55:33;16.20;;;11.67;;
830;SDS011;397;50.564;7.272;2024-03-22T08:58:00;15.30;;;10.27;;
830;SDS011;397;50.564;7.272;2024-03-22T09:00:27;12.80;;;10.03;;
830;SDS011;397;50.564;7.272;2024-03-22T09:02:55;12.90;;;11.17;;
830;SDS011;397;50.564;7.272;2024-03-22T09:05:22;11.23;;;10.03;;
830;SDS011;397;50.564;7.272;2024-03-22T09:07:50;13.00;;;10.33;;
830;SDS011;397;50.564;7.272;2024-03-22T09:10:19;15.93;;;9.40;;
830;SDS011;397;50.564;7.272;2024-03-22T09:12:46;14.20;;;9.83;;
830;SDS011;397;50.564;7.272;2024-03-22T09:15:13;10.83;;;9.73;;
830;SDS011;397;50.564;7.272;2024-03-22T09:17:41;12.53;;;10.10;;
830;SDS011;397;50.564;7.272;2024-03-22T09:20:08;11.03;;;9.33;;
830;SDS011;397;50.564;7.272;2024-03-22T09:22:36;13.13;;;8.70;;
830;SDS011;397;50.564;7.272;2024-03-22T09:25:05;12.87;;;10.57;;
830;SDS011;397;50.564;7.272;2024-03-22T09:27:33;10.93;;;9.57;;
830;SDS011;397;50.564;7.272;2024-03-22T09:30:00;12.43;;;10.53;;
830;SDS011;397;50.564;7.272;2024-03-22T09:32:30;17.60;;;9.50;;
830;SDS011;397;50.564;7.272;2024-03-22T09:34:57;13.77;;;10.23;;
830;SDS011;397;50.564;7.272;2024-03-22T09:37:25;16.43;;;12.10;;
830;SDS011;397;50.564;7.272;2024-03-22T09:39:52;11.50;;;10.00;;
830;SDS011;397;50.564;7.272;2024-03-22T09:42:20;16.97;;;10.07;;
830;SDS011;397;50.564;7.272;2024-03-22T09:44:49;11.53;;;9.50;;
830;SDS011;397;50.564;7.272;2024-03-22T09:47:17;14.17;;;11.93;;
830;SDS011;397;50.564;7.272;2024-03-22T09:49:46;13.83;;;10.73;;
830;SDS011;397;50.564;7.272;2024-03-22T09:52:15;11.30;;;9.77;;
830;SDS011;397;50.564;7.272;2024-03-22T09:54:46;16.93;;;10.93;;
830;SDS011;397;50.564;7.272;2024-03-22T09:57:14;16.23;;;10.13;;
830;SDS011;397;50.564;7.272;2024-03-22T09:59:44;13.40;;;10.40;;
830;SDS011;397;50.564;7.272;2024-03-22T10:02:12;14.93;;;11.80;;
830;SDS011;397;50.564;7.272;2024-03-22T10:04:40;17.80;;;10.37;;
830;SDS011;397;50.564;7.272;2024-03-22T10:07:08;11.90;;;10.73;;
830;SDS011;397;50.564;7.272;2024-03-22T10:09:37;16.53;;;12.30;;
830;SDS011;397;50.564;7.272;2024-03-22T10:12:04;12.57;;;10.87;;
830;SDS011;397;50.564;7.272;2024-03-22T10:14:32;12.83;;;11.47;;
830;SDS011;397;50.564;7.272;2024-03-22T10:16:59;16.30;;;12.27;;
830;SDS011;397;50.564;7.272;2024-03-22T10:19:27;13.03;;;11.63;;
830;SDS011;397;50.564;7.272;2024-03-22T10:22:00;21.13;;;11.33;;
830;SDS011;397;50.564;7.272;2024-03-22T10:24:28;25.40;;;13.17;;
830;SDS011;397;50.564;7.272;2024-03-22T10:26:56;14.80;;;11.50;;
830;SDS011;397;50.564;7.272;2024-03-22T10:29:24;15.40;;;12.17;;
830;SDS011;397;50.564;7.272;2024-03-22T10:31:51;15.00;;;12.30;;
830;SDS011;397;50.564;7.272;2024-03-22T10:34:20;15.60;;;12.47;;
830;SDS011;397;50.564;7.272;2024-03-22T10:36:48;13.50;;;12.07;;
830;SDS011;397;50.564;7.272;2024-03-22T10:39:20;18.20;;;12.47;;
830;SDS011;397;50.564;7.272;2024-03-22T10:41:46;15.73;;;13.10;;
830;SDS011;397;50.564;7.272;2024-03-22T10:44:15;15.33;;;12.10;;
830;SDS011;397;50.564;7.272;2024-03-22T10:46:47;19.37;;;12.07;;
830;SDS011;397;50.564;7.272;2024-03-22T10:49:18;12.47;;;11.17;;
830;SDS011;397;50.564;7.272;2024-03-22T10:51:46;15.97;;;11.00;;
830;SDS011;397;50.564;7.272;2024-03-22T10:54:16;14.93;;;11.33;;
830;SDS011;397;50.564;7.272;2024-03-22T10:56:43;13.20;;;10.73;;
830;SDS011;397;50.564;7.272;2024-03-22T10:59:33;14.67;;;11.87;;
830;SDS011;397;50.564;7.272;2024-03-22T11:01:44;20.43;;;11.53;;
830;SDS011;397;50.564;7.272;2024-03-22T11:04:12;15.30;;;12.80;;
830;SDS011;397;50.564;7.272;2024-03-22T11:06:40;16.63;;;11.10;;
830;SDS011;397;50.564;7.272;2024-03-22T11:09:08;14.03;;;11.40;;
830;SDS011;397;50.564;7.272;2024-03-22T11:11:36;17.43;;;11.70;;
830;SDS011;397;50.564;7.272;2024-03-22T11:14:04;12.83;;;10.50;;
830;SDS011;397;50.564;7.272;2024-03-22T11:16:31;15.27;;;11.10;;
830;SDS011;397;50.564;7.272;2024-03-22T11:18:58;12.47;;;11.17;;
830;SDS011;397;50.564;7.272;2024-03-22T11:21:26;12.40;;;9.97;;
830;SDS011;397;50.564;7.272;2024-03-22T11:23:53;12.67;;;10.50;;
830;SDS011;397;50.564;7.272;2024-03-22T11:26:20;16.33;;;10.00;;
830;SDS011;397;50.564;7.272;2024-03-22T11:28:48;15.53;;;10.90;;
830;SDS011;397;50.564;7.272;2024-03-22T11:31:16;15.63;;;10.40;;
830;SDS011;397;50.564;7.272;2024-03-22T11:33:43;12.40;;;9.03;;
830;SDS011;397;50.564;7.272;2024-03-22T11:36:11;14.00;;;9.93;;
830;SDS011;397;50.564;7.272;2024-03-22T11:38:38;11.40;;;8.60;;
830;SDS011;397;50.564;7.272;2024-03-22T11:41:06;11.60;;;9.30;;
830;SDS011;397;50.564;7.272;2024-03-22T11:43:34;11.83;;;8.40;;
830;SDS011;397;50.564;7.272;2024-03-22T11:46:02;10.77;;;8.47;;
830;SDS011;397;50.564;7.272;2024-03-22T11:48:29;11.83;;;7.60;;
830;SDS011;397;50.564;7.272;2024-03-22T11:50:56;11.50;;;9.67;;
830;SDS011;397;50.564;7.272;2024-03-22T11:53:25;13.80;;;10.00;;
830;SDS011;397;50.564;7.272;2024-03-22T11:55:53;21.17;;;19.13;;
830;SDS011;397;50.564;7.272;2024-03-22T11:58:20;15.17;;;12.13;;
830;SDS011;397;50.564;7.272;2024-03-22T12:00:47;12.67;;;11.40;;
830;SDS011;397;50.564;7.272;2024-03-22T12:03:15;24.47;;;22.20;;
830;SDS011;397;50.564;7.272;2024-03-22T12:05:42;19.10;;;16.80;;
830;SDS011;397;50.564;7.272;2024-03-22T12:08:09;26.17;;;23.80;;
830;SDS011;397;50.564;7.272;2024-03-22T12:10:37;14.23;;;12.83;;
830;SDS011;397;50.564;7.272;2024-03-22T12:13:04;14.97;;;10.97;;
830;SDS011;397;50.564;7.272;2024-03-22T12:15:31;12.10;;;11.00;;
830;SDS011;397;50.564;7.272;2024-03-22T12:17:59;21.07;;;18.97;;
830;SDS011;397;50.564;7.272;2024-03-22T12:20:26;16.63;;;12.73;;
830;SDS011;397;50.564;7.272;2024-03-22T12:22:53;22.63;;;20.43;;
830;SDS011;397;50.564;7.272;2024-03-22T12:25:21;13.67;;;11.23;;
830;SDS011;397;50.564;7.272;2024-03-22T12:27:48;9.47;;;8.47;;
830;SDS011;397;50.564;7.272;2024-03-22T12:30:15;11.43;;;10.23;;
830;SDS011;397;50.564;7.272;2024-03-22T12:32:43;11.03;;;7.70;;
830;SDS011;397;50.564;7.272;2024-03-22T12:35:10;8.87;;;7.80;;
830;SDS011;397;50.564;7.272;2024-03-22T12:37:37;9.37;;;7.40;;
830;SDS011;397;50.564;7.272;2024-03-22T12:40:06;14.73;;;12.60;;
830;SDS011;397;50.564;7.272;2024-03-22T12:42:34;13.70;;;11.77;;
830;SDS011;397;50.564;7.272;2024-03-22T12:45:02;13.13;;;9.90;;
830;SDS011;397;50.564;7.272;2024-03-22T12:47:29;10.87;;;8.10;;
830;SDS011;397;50.564;7.272;2024-03-22T12:49:56;8.60;;;7.77;;
830;SDS011;397;50.564;7.272;2024-03-22T12:52:24;9.77;;;8.47;;
830;SDS011;397;50.564;7.272;2024-03-22T12:54:51;15.00;;;8.30;;
830;SDS011;397;50.564;7.272;2024-03-22T12:57:18;20.40;;;7.70;;
830;SDS011;397;50.564;7.272;2024-03-22T12:59:46;16.60;;;7.67;;
830;SDS011;397;50.564;7.272;2024-03-22T13:02:13;12.03;;;8.07;;
830;SDS011;397;50.564;7.272;2024-03-22T13:04:41;13.23;;;9.50;;
830;SDS011;397;50.564;7.272;2024-03-22T13:07:09;18.30;;;15.33;;
830;SDS011;397;50.564;7.272;2024-03-22T13:09:37;15.77;;;11.40;;
830;SDS011;397;50.564;7.272;2024-03-22T13:12:04;9.87;;;7.70;;
830;SDS011;397;50.564;7.272;2024-03-22T13:14:34;9.13;;;6.87;;
830;SDS011;397;50.564;7.272;2024-03-22T13:17:01;16.10;;;14.10;;
830;SDS011;397;50.564;7.272;2024-03-22T13:19:28;12.13;;;10.73;;
830;SDS011;397;50.564;7.272;2024-03-22T13:21:56;14.20;;;10.47;;
830;SDS011;397;50.564;7.272;2024-03-22T13:24:23;8.13;;;7.33;;
830;SDS011;397;50.564;7.272;2024-03-22T13:26:51;8.97;;;7.00;;
830;SDS011;397;50.564;7.272;2024-03-22T13:29:18;9.43;;;7.97;;
830;SDS011;397;50.564;7.272;2024-03-22T13:31:45;8.70;;;6.60;;
830;SDS011;397;50.564;7.272;2024-03-22T13:34:13;9.17;;;5.80;;
830;SDS011;397;50.564;7.272;2024-03-22T13:36:40;6.67;;;5.57;;
830;SDS011;397;50.564;7.272;2024-03-22T13:39:07;6.17;;;4.90;;
830;SDS011;397;50.564;7.272;2024-03-22T13:41:36;7.93;;;5.30;;
830;SDS011;397;50.564;7.272;2024-03-22T13:44:04;6.73;;;4.50;;
830;SDS011;397;50.564;7.272;2024-03-22T13:46:33;8.07;;;5.43;;
830;SDS011;397;50.564;7.272;2024-03-22T13:49:03;8.00;;;5.53;;
830;SDS011;397;50.564;7.272;2024-03-22T13:51:31;11.30;;;6.00;;
830;SDS011;397;50.564;7.272;2024-03-22T13:53:58;8.40;;;6.50;;
830;SDS011;397;50.564;7.272;2024-03-22T13:56:25;11.10;;;7.53;;
830;SDS011;397;50.564;7.272;2024-03-22T13:58:53;8.93;;;6.10;;
830;SDS011;397;50.564;7.272;2024-03-22T14:01:20;8.73;;;6.67;;
830;SDS011;397;50.564;7.272;2024-03-22T14:03:48;13.93;;;7.30;;
830;SDS011;397;50.564;7.272;2024-03-22T14:06:15;10.40;;;7.70;;
830;SDS011;397;50.564;7.272;2024-03-22T14:08:42;12.17;;;7.93;;
830;SDS011;397;50.564;7.272;2024-03-22T14:11:09;9.20;;;7.13;;
830;SDS011;397;50.564;7.272;2024-03-22T14:13:37;10.30;;;7.93;;
830;SDS011;397;50.564;7.272;2024-03-22T14:16:04;9.07;;;7.93;;
830;SDS011;397;50.564;7.272;2024-03-22T14:18:33;7.50;;;6.50;;
830;SDS011;397;50.564;7.272;2024-03-22T14:21:01;10.23;;;6.10;;
830;SDS011;397;50.564;7.272;2024-03-22T14:23:29;9.03;;;5.10;;
830;SDS011;397;50.564;7.272;2024-03-22T14:25:56;8.30;;;6.50;;
830;SDS011;397;50.564;7.272;2024-03-22T14:28:23;10.43;;;5.70;;
830;SDS011;397;50.564;7.272;2024-03-22T14:30:51;7.13;;;5.50;;
830;SDS011;397;50.564;7.272;2024-03-22T14:33:18;9.10;;;6.00;;
830;SDS011;397;50.564;7.272;2024-03-22T14:35:45;6.77;;;5.53;;
830;SDS011;397;50.564;7.272;2024-03-22T14:38:14;8.40;;;5.93;;
830;SDS011;397;50.564;7.272;2024-03-22T14:40:41;8.00;;;4.90;;
830;SDS011;397;50.564;7.272;2024-03-22T14:43:08;8.07;;;5.70;;
830;SDS011;397;50.564;7.272;2024-03-22T14:45:37;6.50;;;5.07;;
830;SDS011;397;50.564;7.272;2024-03-22T14:48:05;7.90;;;4.90;;
830;SDS011;397;50.564;7.272;2024-03-22T14:50:36;7.17;;;5.50;;
830;SDS011;397;50.564;7.272;2024-03-22T14:53:05;12.43;;;9.60;;
830;SDS011;397;50.564;7.272;2024-03-22T14:55:32;12.93;;;9.57;;
830;SDS011;397;50.564;7.272;2024-03-22T14:57:59;8.97;;;5.00;;
830;SDS011;397;50.564;7.272;2024-03-22T15:00:27;6.00;;;4.37;;
830;SDS011;397;50.564;7.272;2024-03-22T15:02:55;8.67;;;4.80;;
830;SDS011;397;50.564;7.272;2024-03-22T15:05:22;10.07;;;8.90;;
830;SDS011;397;50.564;7.272;2024-03-22T15:07:49;18.03;;;16.13;;
830;SDS011;397;50.564;7.272;2024-03-22T15:10:16;5.93;;;5.23;;
830;SDS011;397;50.564;7.272;2024-03-22T15:12:44;7.37;;;4.33;;
830;SDS011;397;50.564;7.272;2024-03-22T15:15:11;7.53;;;3.90;;
830;SDS011;397;50.564;7.272;2024-03-22T15:17:38;6.60;;;4.07;;
830;SDS011;397;50.564;7.272;2024-03-22T15:20:06;7.90;;;4.80;;
830;SDS011;397;50.564;7.272;2024-03-22T15:22:35;6.07;;;3.70;;